sensor_id;sensor_type;location;lat;lon;timestamp;P1;durP1;ratioP1;P2;durP2;ratioP2
47715;SDS011;33476;50.984;3.538;2023-04-24T00:00:00;6.88;;;2.88;;
47715;SDS011;33476;50.984;3.538;2023-04-24T00:02:30;3.03;;;1.93;;
47715;SDS011;33476;50.984;3.538;2023-04-24T00:04:56;9.00;;;2.53;;
47715;SDS011;33476;50.984;3.538;2023-04-24T00:07:22;7.80;;;2.53;;
47715;SDS011;33476;50.984;3.538;2023-04-24T00:09:47;5.10;;;2.72;;
47715;SDS011;33476;50.984;3.538;2023-04-24T00:12:12;5.20;;;2.38;;
47715;SDS011;33476;50.984;3.538;2023-04-24T00:14:38;9.30;;;3.33;;
47715;SDS011;33476;50.984;3.538;2023-04-24T00:17:03;4.40;;;2.38;;
47715;SDS011;33476;50.984;3.538;2023-04-24T00:19:29;5.95;;;2.28;;
47715;SDS011;33476;50.984;3.538;2023-04-24T00:21:54;5.35;;;2.70;;
47715;SDS011;33476;50.984;3.538;2023-04-24T00:24:20;5.43;;;2.55;;
47715;SDS011;33476;50.984;3.538;2023-04-24T00:26:46;3.95;;;2.15;;
47715;SDS011;33476;50.984;3.538;2023-04-24T00:29:11;9.27;;;2.72;;
47715;SDS011;33476;50.984;3.538;2023-04-24T00:31:37;9.02;;;2.25;;
47715;SDS011;33476;50.984;3.538;2023-04-24T00:34:03;6.97;;;2.70;;
47715;SDS011;33476;50.984;3.538;2023-04-24T00:36:29;3.30;;;1.50;;
47715;SDS011;33476;50.984;3.538;2023-04-24T00:38:55;6.38;;;1.65;;
47715;SDS011;33476;50.984;3.538;2023-04-24T00:41:22;2.40;;;1.58;;
47715;SDS011;33476;50.984;3.538;2023-04-24T00:43:49;3.20;;;1.60;;
47715;SDS011;33476;50.984;3.538;2023-04-24T00:46:14;2.80;;;1.40;;
47715;SDS011;33476;50.984;3.538;2023-04-24T00:48:41;4.78;;;1.70;;
47715;SDS011;33476;50.984;3.538;2023-04-24T00:51:07;3.03;;;1.25;;
47715;SDS011;33476;50.984;3.538;2023-04-24T00:53:33;2.60;;;1.33;;
47715;SDS011;33476;50.984;3.538;2023-04-24T00:55:58;5.80;;;1.50;;
47715;SDS011;33476;50.984;3.538;2023-04-24T00:58:25;2.65;;;1.27;;
47715;SDS011;33476;50.984;3.538;2023-04-24T01:00:51;2.13;;;1.20;;
47715;SDS011;33476;50.984;3.538;2023-04-24T01:03:19;2.83;;;1.02;;
47715;SDS011;33476;50.984;3.538;2023-04-24T01:05:47;3.78;;;1.48;;
47715;SDS011;33476;50.984;3.538;2023-04-24T01:08:14;2.63;;;1.27;;
47715;SDS011;33476;50.984;3.538;2023-04-24T01:10:41;1.63;;;1.10;;
47715;SDS011;33476;50.984;3.538;2023-04-24T01:13:09;3.88;;;1.83;;
47715;SDS011;33476;50.984;3.538;2023-04-24T01:15:35;3.90;;;2.03;;
47715;SDS011;33476;50.984;3.538;2023-04-24T01:18:01;3.00;;;2.10;;
47715;SDS011;33476;50.984;3.538;2023-04-24T01:20:26;2.63;;;1.45;;
47715;SDS011;33476;50.984;3.538;2023-04-24T01:22:52;2.28;;;1.65;;
47715;SDS011;33476;50.984;3.538;2023-04-24T01:25:19;2.97;;;1.70;;
47715;SDS011;33476;50.984;3.538;2023-04-24T01:27:45;4.30;;;1.90;;
47715;SDS011;33476;50.984;3.538;2023-04-24T01:30:11;5.03;;;2.72;;
47715;SDS011;33476;50.984;3.538;2023-04-24T01:32:37;4.53;;;2.60;;
47715;SDS011;33476;50.984;3.538;2023-04-24T01:35:03;4.45;;;2.58;;
47715;SDS011;33476;50.984;3.538;2023-04-24T01:37:31;5.90;;;2.55;;
47715;SDS011;33476;50.984;3.538;2023-04-24T01:39:58;4.60;;;2.95;;
47715;SDS011;33476;50.984;3.538;2023-04-24T01:42:23;3.47;;;2.83;;
47715;SDS011;33476;50.984;3.538;2023-04-24T01:44:49;5.00;;;3.17;;
47715;SDS011;33476;50.984;3.538;2023-04-24T01:47:16;7.38;;;3.25;;
47715;SDS011;33476;50.984;3.538;2023-04-24T01:49:41;4.65;;;3.08;;
47715;SDS011;33476;50.984;3.538;2023-04-24T01:52:07;6.78;;;3.22;;
47715;SDS011;33476;50.984;3.538;2023-04-24T01:54:32;6.10;;;3.33;;
47715;SDS011;33476;50.984;3.538;2023-04-24T01:56:58;7.07;;;2.97;;
47715;SDS011;33476;50.984;3.538;2023-04-24T01:59:25;6.60;;;3.75;;
47715;SDS011;33476;50.984;3.538;2023-04-24T02:01:52;5.93;;;3.65;;
47715;SDS011;33476;50.984;3.538;2023-04-24T02:04:18;6.15;;;3.80;;
47715;SDS011;33476;50.984;3.538;2023-04-24T02:06:43;5.07;;;3.65;;
47715;SDS011;33476;50.984;3.538;2023-04-24T02:09:09;7.47;;;4.40;;
47715;SDS011;33476;50.984;3.538;2023-04-24T02:11:35;7.38;;;4.05;;
47715;SDS011;33476;50.984;3.538;2023-04-24T02:14:01;6.32;;;4.00;;
47715;SDS011;33476;50.984;3.538;2023-04-24T02:16:27;8.27;;;3.97;;
47715;SDS011;33476;50.984;3.538;2023-04-24T02:18:57;7.65;;;3.60;;
47715;SDS011;33476;50.984;3.538;2023-04-24T02:21:23;8.60;;;4.45;;
47715;SDS011;33476;50.984;3.538;2023-04-24T02:23:48;6.78;;;3.47;;
47715;SDS011;33476;50.984;3.538;2023-04-24T02:26:14;5.28;;;3.08;;
47715;SDS011;33476;50.984;3.538;2023-04-24T02:28:40;4.15;;;2.45;;
47715;SDS011;33476;50.984;3.538;2023-04-24T02:31:05;3.75;;;1.70;;
47715;SDS011;33476;50.984;3.538;2023-04-24T02:33:31;3.47;;;2.25;;
47715;SDS011;33476;50.984;3.538;2023-04-24T02:35:56;2.58;;;1.70;;
47715;SDS011;33476;50.984;3.538;2023-04-24T02:38:22;3.53;;;1.42;;
47715;SDS011;33476;50.984;3.538;2023-04-24T02:40:47;3.50;;;1.05;;
47715;SDS011;33476;50.984;3.538;2023-04-24T02:43:13;2.13;;;0.82;;
47715;SDS011;33476;50.984;3.538;2023-04-24T02:45:38;4.45;;;0.85;;
47715;SDS011;33476;50.984;3.538;2023-04-24T02:48:04;5.40;;;0.80;;
47715;SDS011;33476;50.984;3.538;2023-04-24T02:50:29;4.13;;;1.20;;
47715;SDS011;33476;50.984;3.538;2023-04-24T02:52:54;6.28;;;0.85;;
47715;SDS011;33476;50.984;3.538;2023-04-24T02:55:20;5.03;;;0.90;;
47715;SDS011;33476;50.984;3.538;2023-04-24T02:57:45;5.13;;;0.50;;
47715;SDS011;33476;50.984;3.538;2023-04-24T03:00:11;3.63;;;0.70;;
47715;SDS011;33476;50.984;3.538;2023-04-24T03:02:36;5.10;;;1.02;;
47715;SDS011;33476;50.984;3.538;2023-04-24T03:05:02;4.00;;;0.70;;
47715;SDS011;33476;50.984;3.538;2023-04-24T03:07:29;7.45;;;0.80;;
47715;SDS011;33476;50.984;3.538;2023-04-24T03:09:55;5.47;;;1.23;;
47715;SDS011;33476;50.984;3.538;2023-04-24T03:12:23;6.65;;;0.85;;
47715;SDS011;33476;50.984;3.538;2023-04-24T03:14:48;3.97;;;1.00;;
47715;SDS011;33476;50.984;3.538;2023-04-24T03:17:14;2.80;;;0.75;;
47715;SDS011;33476;50.984;3.538;2023-04-24T03:19:39;5.57;;;1.17;;
47715;SDS011;33476;50.984;3.538;2023-04-24T03:22:05;3.80;;;1.23;;
47715;SDS011;33476;50.984;3.538;2023-04-24T03:24:31;2.13;;;1.15;;
47715;SDS011;33476;50.984;3.538;2023-04-24T03:26:56;3.20;;;1.05;;
47715;SDS011;33476;50.984;3.538;2023-04-24T03:29:22;4.78;;;1.75;;
47715;SDS011;33476;50.984;3.538;2023-04-24T03:31:47;4.47;;;1.33;;
47715;SDS011;33476;50.984;3.538;2023-04-24T03:34:13;4.80;;;1.90;;
47715;SDS011;33476;50.984;3.538;2023-04-24T03:36:38;4.55;;;1.70;;
47715;SDS011;33476;50.984;3.538;2023-04-24T03:39:03;5.97;;;2.22;;
47715;SDS011;33476;50.984;3.538;2023-04-24T03:41:29;7.97;;;2.30;;
47715;SDS011;33476;50.984;3.538;2023-04-24T03:43:55;6.93;;;2.63;;
47715;SDS011;33476;50.984;3.538;2023-04-24T03:46:21;5.95;;;2.75;;
47715;SDS011;33476;50.984;3.538;2023-04-24T03:48:46;8.80;;;3.00;;
47715;SDS011;33476;50.984;3.538;2023-04-24T03:51:12;11.45;;;3.58;;
47715;SDS011;33476;50.984;3.538;2023-04-24T03:53:37;8.73;;;3.10;;
47715;SDS011;33476;50.984;3.538;2023-04-24T03:56:02;11.20;;;3.17;;
47715;SDS011;33476;50.984;3.538;2023-04-24T03:58:28;9.10;;;3.58;;
47715;SDS011;33476;50.984;3.538;2023-04-24T04:00:53;12.25;;;3.25;;
47715;SDS011;33476;50.984;3.538;2023-04-24T04:03:19;7.78;;;2.90;;
47715;SDS011;33476;50.984;3.538;2023-04-24T04:05:44;6.07;;;2.95;;
47715;SDS011;33476;50.984;3.538;2023-04-24T04:08:10;11.80;;;3.80;;
47715;SDS011;33476;50.984;3.538;2023-04-24T04:10:35;9.70;;;3.30;;
47715;SDS011;33476;50.984;3.538;2023-04-24T04:13:01;9.38;;;3.42;;
47715;SDS011;33476;50.984;3.538;2023-04-24T04:15:26;12.90;;;3.72;;
47715;SDS011;33476;50.984;3.538;2023-04-24T04:17:51;10.48;;;3.65;;
47715;SDS011;33476;50.984;3.538;2023-04-24T04:20:17;6.05;;;3.17;;
47715;SDS011;33476;50.984;3.538;2023-04-24T04:22:42;6.40;;;2.78;;
47715;SDS011;33476;50.984;3.538;2023-04-24T04:25:08;9.07;;;2.95;;
47715;SDS011;33476;50.984;3.538;2023-04-24T04:27:33;6.65;;;2.72;;
47715;SDS011;33476;50.984;3.538;2023-04-24T04:29:59;7.43;;;2.70;;
47715;SDS011;33476;50.984;3.538;2023-04-24T04:32:29;13.73;;;3.10;;
47715;SDS011;33476;50.984;3.538;2023-04-24T04:34:55;14.50;;;3.17;;
47715;SDS011;33476;50.984;3.538;2023-04-24T04:37:21;8.30;;;2.80;;
47715;SDS011;33476;50.984;3.538;2023-04-24T04:39:46;8.02;;;2.20;;
47715;SDS011;33476;50.984;3.538;2023-04-24T04:42:11;8.23;;;2.58;;
47715;SDS011;33476;50.984;3.538;2023-04-24T04:44:38;10.93;;;2.95;;
47715;SDS011;33476;50.984;3.538;2023-04-24T04:47:04;9.27;;;3.10;;
47715;SDS011;33476;50.984;3.538;2023-04-24T04:49:30;5.05;;;2.90;;
47715;SDS011;33476;50.984;3.538;2023-04-24T04:51:57;12.32;;;2.55;;
47715;SDS011;33476;50.984;3.538;2023-04-24T04:54:22;8.15;;;3.00;;
47715;SDS011;33476;50.984;3.538;2023-04-24T04:56:49;9.65;;;3.15;;
47715;SDS011;33476;50.984;3.538;2023-04-24T04:59:15;9.25;;;3.35;;
47715;SDS011;33476;50.984;3.538;2023-04-24T05:01:40;8.18;;;2.28;;
47715;SDS011;33476;50.984;3.538;2023-04-24T05:04:06;9.98;;;2.80;;
47715;SDS011;33476;50.984;3.538;2023-04-24T05:06:31;7.75;;;2.47;;
47715;SDS011;33476;50.984;3.538;2023-04-24T05:08:57;6.80;;;2.90;;
47715;SDS011;33476;50.984;3.538;2023-04-24T05:11:22;9.38;;;3.03;;
47715;SDS011;33476;50.984;3.538;2023-04-24T05:13:48;8.73;;;3.20;;
47715;SDS011;33476;50.984;3.538;2023-04-24T05:16:14;6.88;;;2.50;;
47715;SDS011;33476;50.984;3.538;2023-04-24T05:18:39;9.93;;;3.00;;
47715;SDS011;33476;50.984;3.538;2023-04-24T05:21:05;7.15;;;3.22;;
47715;SDS011;33476;50.984;3.538;2023-04-24T05:23:31;10.73;;;3.53;;
47715;SDS011;33476;50.984;3.538;2023-04-24T05:25:56;8.98;;;3.20;;
47715;SDS011;33476;50.984;3.538;2023-04-24T05:28:22;10.93;;;3.45;;
47715;SDS011;33476;50.984;3.538;2023-04-24T05:30:47;13.57;;;3.33;;
47715;SDS011;33476;50.984;3.538;2023-04-24T05:33:13;9.13;;;4.28;;
47715;SDS011;33476;50.984;3.538;2023-04-24T05:35:39;7.10;;;3.88;;
47715;SDS011;33476;50.984;3.538;2023-04-24T05:38:10;12.30;;;4.22;;
47715;SDS011;33476;50.984;3.538;2023-04-24T05:40:37;9.95;;;4.18;;
47715;SDS011;33476;50.984;3.538;2023-04-24T05:43:02;12.68;;;4.15;;
47715;SDS011;33476;50.984;3.538;2023-04-24T05:45:27;16.10;;;4.65;;
47715;SDS011;33476;50.984;3.538;2023-04-24T05:47:53;12.35;;;4.57;;
47715;SDS011;33476;50.984;3.538;2023-04-24T05:50:18;13.75;;;4.57;;
47715;SDS011;33476;50.984;3.538;2023-04-24T05:52:44;12.32;;;4.65;;
47715;SDS011;33476;50.984;3.538;2023-04-24T05:55:09;12.05;;;4.85;;
47715;SDS011;33476;50.984;3.538;2023-04-24T05:57:35;16.15;;;5.00;;
47715;SDS011;33476;50.984;3.538;2023-04-24T06:00:00;12.90;;;5.22;;
47715;SDS011;33476;50.984;3.538;2023-04-24T06:02:25;20.30;;;5.32;;
47715;SDS011;33476;50.984;3.538;2023-04-24T06:04:52;11.65;;;4.63;;
47715;SDS011;33476;50.984;3.538;2023-04-24T06:07:17;12.60;;;4.60;;
47715;SDS011;33476;50.984;3.538;2023-04-24T06:09:43;11.20;;;4.38;;
47715;SDS011;33476;50.984;3.538;2023-04-24T06:12:08;11.15;;;4.38;;
47715;SDS011;33476;50.984;3.538;2023-04-24T06:14:34;10.80;;;4.60;;
47715;SDS011;33476;50.984;3.538;2023-04-24T06:16:59;11.45;;;4.45;;
47715;SDS011;33476;50.984;3.538;2023-04-24T06:19:25;12.95;;;4.75;;
47715;SDS011;33476;50.984;3.538;2023-04-24T06:21:50;12.77;;;4.53;;
47715;SDS011;33476;50.984;3.538;2023-04-24T06:24:16;11.23;;;3.50;;
47715;SDS011;33476;50.984;3.538;2023-04-24T06:26:41;13.55;;;4.28;;
47715;SDS011;33476;50.984;3.538;2023-04-24T06:29:07;9.43;;;3.60;;
47715;SDS011;33476;50.984;3.538;2023-04-24T06:31:32;9.55;;;3.60;;
47715;SDS011;33476;50.984;3.538;2023-04-24T06:34:02;14.32;;;3.92;;
47715;SDS011;33476;50.984;3.538;2023-04-24T06:36:28;11.40;;;3.20;;
47715;SDS011;33476;50.984;3.538;2023-04-24T06:38:53;15.18;;;3.22;;
47715;SDS011;33476;50.984;3.538;2023-04-24T06:41:19;12.77;;;3.33;;
47715;SDS011;33476;50.984;3.538;2023-04-24T06:43:44;13.80;;;3.80;;
47715;SDS011;33476;50.984;3.538;2023-04-24T06:46:10;11.13;;;3.22;;
47715;SDS011;33476;50.984;3.538;2023-04-24T06:48:35;9.43;;;3.20;;
47715;SDS011;33476;50.984;3.538;2023-04-24T06:51:01;8.45;;;2.75;;
47715;SDS011;33476;50.984;3.538;2023-04-24T06:53:26;15.77;;;3.55;;
47715;SDS011;33476;50.984;3.538;2023-04-24T06:55:52;8.80;;;2.92;;
47715;SDS011;33476;50.984;3.538;2023-04-24T06:58:18;15.18;;;3.30;;
47715;SDS011;33476;50.984;3.538;2023-04-24T07:00:43;14.73;;;3.10;;
47715;SDS011;33476;50.984;3.538;2023-04-24T07:03:08;14.95;;;3.08;;
47715;SDS011;33476;50.984;3.538;2023-04-24T07:05:34;14.10;;;3.08;;
47715;SDS011;33476;50.984;3.538;2023-04-24T07:08:00;12.40;;;2.70;;
47715;SDS011;33476;50.984;3.538;2023-04-24T07:10:26;6.72;;;2.33;;
47715;SDS011;33476;50.984;3.538;2023-04-24T07:12:53;12.98;;;2.42;;
47715;SDS011;33476;50.984;3.538;2023-04-24T07:15:19;8.88;;;2.72;;
47715;SDS011;33476;50.984;3.538;2023-04-24T07:17:45;11.93;;;2.70;;
47715;SDS011;33476;50.984;3.538;2023-04-24T07:20:11;9.45;;;2.30;;
47715;SDS011;33476;50.984;3.538;2023-04-24T07:22:39;10.40;;;2.15;;
47715;SDS011;33476;50.984;3.538;2023-04-24T07:25:05;12.55;;;2.17;;
47715;SDS011;33476;50.984;3.538;2023-04-24T07:27:32;5.68;;;2.15;;
47715;SDS011;33476;50.984;3.538;2023-04-24T07:29:57;9.05;;;2.15;;
47715;SDS011;33476;50.984;3.538;2023-04-24T07:32:23;7.82;;;2.08;;
47715;SDS011;33476;50.984;3.538;2023-04-24T07:34:48;10.63;;;2.08;;
47715;SDS011;33476;50.984;3.538;2023-04-24T07:37:13;8.60;;;1.73;;
47715;SDS011;33476;50.984;3.538;2023-04-24T07:39:39;8.43;;;2.15;;
47715;SDS011;33476;50.984;3.538;2023-04-24T07:42:04;8.65;;;2.65;;
47715;SDS011;33476;50.984;3.538;2023-04-24T07:44:30;13.50;;;2.25;;
47715;SDS011;33476;50.984;3.538;2023-04-24T07:46:55;10.88;;;2.05;;
47715;SDS011;33476;50.984;3.538;2023-04-24T07:49:21;8.27;;;1.30;;
47715;SDS011;33476;50.984;3.538;2023-04-24T07:51:46;7.20;;;1.50;;
47715;SDS011;33476;50.984;3.538;2023-04-24T07:54:12;7.88;;;1.90;;
47715;SDS011;33476;50.984;3.538;2023-04-24T07:56:37;6.95;;;1.35;;
47715;SDS011;33476;50.984;3.538;2023-04-24T07:59:04;6.03;;;1.70;;
47715;SDS011;33476;50.984;3.538;2023-04-24T08:01:29;4.78;;;1.60;;
47715;SDS011;33476;50.984;3.538;2023-04-24T08:03:55;7.68;;;1.38;;
47715;SDS011;33476;50.984;3.538;2023-04-24T08:06:21;7.55;;;1.55;;
47715;SDS011;33476;50.984;3.538;2023-04-24T08:08:46;6.18;;;1.17;;
47715;SDS011;33476;50.984;3.538;2023-04-24T08:11:11;6.15;;;1.35;;
47715;SDS011;33476;50.984;3.538;2023-04-24T08:13:37;10.93;;;1.50;;
47715;SDS011;33476;50.984;3.538;2023-04-24T08:16:02;6.68;;;1.48;;
47715;SDS011;33476;50.984;3.538;2023-04-24T08:18:27;6.50;;;1.77;;
47715;SDS011;33476;50.984;3.538;2023-04-24T08:20:53;8.05;;;1.60;;
47715;SDS011;33476;50.984;3.538;2023-04-24T08:23:18;6.28;;;1.05;;
47715;SDS011;33476;50.984;3.538;2023-04-24T08:25:43;4.78;;;1.33;;
47715;SDS011;33476;50.984;3.538;2023-04-24T08:28:09;8.65;;;1.05;;
47715;SDS011;33476;50.984;3.538;2023-04-24T08:30:35;9.75;;;1.48;;
47715;SDS011;33476;50.984;3.538;2023-04-24T08:33:01;7.43;;;1.33;;
47715;SDS011;33476;50.984;3.538;2023-04-24T08:35:27;5.63;;;1.33;;
47715;SDS011;33476;50.984;3.538;2023-04-24T08:37:52;8.23;;;1.35;;
47715;SDS011;33476;50.984;3.538;2023-04-24T08:40:18;6.28;;;1.08;;
47715;SDS011;33476;50.984;3.538;2023-04-24T08:42:52;6.55;;;1.45;;
47715;SDS011;33476;50.984;3.538;2023-04-24T08:45:21;6.90;;;1.38;;
47715;SDS011;33476;50.984;3.538;2023-04-24T08:47:46;4.75;;;1.40;;
47715;SDS011;33476;50.984;3.538;2023-04-24T08:50:14;2.88;;;1.05;;
47715;SDS011;33476;50.984;3.538;2023-04-24T08:52:40;8.95;;;1.30;;
47715;SDS011;33476;50.984;3.538;2023-04-24T08:55:07;3.67;;;1.13;;
47715;SDS011;33476;50.984;3.538;2023-04-24T08:57:33;5.50;;;1.73;;
47715;SDS011;33476;50.984;3.538;2023-04-24T08:59:58;5.13;;;1.42;;
47715;SDS011;33476;50.984;3.538;2023-04-24T09:02:25;4.13;;;1.15;;
47715;SDS011;33476;50.984;3.538;2023-04-24T09:04:51;7.53;;;1.48;;
47715;SDS011;33476;50.984;3.538;2023-04-24T09:07:17;7.63;;;1.63;;
47715;SDS011;33476;50.984;3.538;2023-04-24T09:09:45;7.30;;;1.55;;
47715;SDS011;33476;50.984;3.538;2023-04-24T09:12:10;8.80;;;2.05;;
47715;SDS011;33476;50.984;3.538;2023-04-24T09:14:36;4.47;;;1.50;;
47715;SDS011;33476;50.984;3.538;2023-04-24T09:19:33;7.82;;;1.45;;
47715;SDS011;33476;50.984;3.538;2023-04-24T09:21:58;3.05;;;0.90;;
47715;SDS011;33476;50.984;3.538;2023-04-24T09:24:23;5.40;;;1.60;;
47715;SDS011;33476;50.984;3.538;2023-04-24T09:26:49;6.57;;;1.80;;
47715;SDS011;33476;50.984;3.538;2023-04-24T09:29:26;5.65;;;1.67;;
47715;SDS011;33476;50.984;3.538;2023-04-24T09:31:52;5.68;;;1.38;;
47715;SDS011;33476;50.984;3.538;2023-04-24T09:34:24;2.40;;;1.20;;
47715;SDS011;33476;50.984;3.538;2023-04-24T09:36:51;7.90;;;1.23;;
47715;SDS011;33476;50.984;3.538;2023-04-24T09:39:17;5.63;;;1.52;;
47715;SDS011;33476;50.984;3.538;2023-04-24T09:41:48;5.13;;;1.30;;
47715;SDS011;33476;50.984;3.538;2023-04-24T09:46:50;10.38;;;1.40;;
47715;SDS011;33476;50.984;3.538;2023-04-24T09:52:06;6.65;;;1.90;;
47715;SDS011;33476;50.984;3.538;2023-04-24T09:54:32;5.90;;;1.70;;
47715;SDS011;33476;50.984;3.538;2023-04-24T09:56:58;2.72;;;1.05;;
47715;SDS011;33476;50.984;3.538;2023-04-24T09:59:25;5.00;;;1.45;;
47715;SDS011;33476;50.984;3.538;2023-04-24T10:01:50;6.60;;;1.70;;
47715;SDS011;33476;50.984;3.538;2023-04-24T10:04:23;3.05;;;1.25;;
47715;SDS011;33476;50.984;3.538;2023-04-24T10:06:51;6.30;;;1.63;;
47715;SDS011;33476;50.984;3.538;2023-04-24T10:09:19;5.65;;;1.80;;
47715;SDS011;33476;50.984;3.538;2023-04-24T10:11:47;3.88;;;1.40;;
47715;SDS011;33476;50.984;3.538;2023-04-24T10:14:15;4.60;;;1.27;;
47715;SDS011;33476;50.984;3.538;2023-04-24T10:16:41;7.43;;;1.45;;
47715;SDS011;33476;50.984;3.538;2023-04-24T10:19:08;7.82;;;1.63;;
47715;SDS011;33476;50.984;3.538;2023-04-24T10:21:33;7.75;;;1.52;;
47715;SDS011;33476;50.984;3.538;2023-04-24T10:23:59;6.85;;;1.80;;
47715;SDS011;33476;50.984;3.538;2023-04-24T10:26:28;7.97;;;1.30;;
47715;SDS011;33476;50.984;3.538;2023-04-24T10:28:54;5.43;;;1.23;;
47715;SDS011;33476;50.984;3.538;2023-04-24T10:31:23;5.70;;;1.92;;
47715;SDS011;33476;50.984;3.538;2023-04-24T10:33:50;6.32;;;1.60;;
47715;SDS011;33476;50.984;3.538;2023-04-24T10:36:17;3.25;;;1.60;;
47715;SDS011;33476;50.984;3.538;2023-04-24T10:38:43;4.93;;;1.48;;
47715;SDS011;33476;50.984;3.538;2023-04-24T10:41:11;11.40;;;1.85;;
47715;SDS011;33476;50.984;3.538;2023-04-24T10:43:44;6.40;;;1.90;;
47715;SDS011;33476;50.984;3.538;2023-04-24T10:46:10;7.43;;;1.63;;
47715;SDS011;33476;50.984;3.538;2023-04-24T10:48:35;3.22;;;1.08;;
47715;SDS011;33476;50.984;3.538;2023-04-24T10:51:10;7.45;;;1.20;;
47715;SDS011;33476;50.984;3.538;2023-04-24T10:53:36;4.53;;;1.50;;
47715;SDS011;33476;50.984;3.538;2023-04-24T10:56:03;3.47;;;1.60;;
47715;SDS011;33476;50.984;3.538;2023-04-24T10:58:40;5.15;;;1.23;;
47715;SDS011;33476;50.984;3.538;2023-04-24T11:01:22;4.68;;;1.10;;
47715;SDS011;33476;50.984;3.538;2023-04-24T11:04:01;5.78;;;1.00;;
47715;SDS011;33476;50.984;3.538;2023-04-24T11:06:31;4.68;;;1.05;;
47715;SDS011;33476;50.984;3.538;2023-04-24T11:09:02;2.80;;;0.80;;
47715;SDS011;33476;50.984;3.538;2023-04-24T11:11:30;5.35;;;1.27;;
47715;SDS011;33476;50.984;3.538;2023-04-24T11:16:54;1.83;;;0.63;;
47715;SDS011;33476;50.984;3.538;2023-04-24T11:21:54;5.93;;;0.88;;
47715;SDS011;33476;50.984;3.538;2023-04-24T11:27:17;2.38;;;0.75;;
47715;SDS011;33476;50.984;3.538;2023-04-24T11:32:33;2.95;;;0.60;;
47715;SDS011;33476;50.984;3.538;2023-04-24T11:37:26;5.78;;;0.90;;
47715;SDS011;33476;50.984;3.538;2023-04-24T11:39:53;3.72;;;0.80;;
47715;SDS011;33476;50.984;3.538;2023-04-24T11:42:21;4.00;;;0.50;;
47715;SDS011;33476;50.984;3.538;2023-04-24T11:44:48;3.10;;;0.80;;
47715;SDS011;33476;50.984;3.538;2023-04-24T11:47:15;2.00;;;0.70;;
47715;SDS011;33476;50.984;3.538;2023-04-24T11:49:43;4.57;;;0.88;;
47715;SDS011;33476;50.984;3.538;2023-04-24T11:52:09;7.35;;;0.57;;
47715;SDS011;33476;50.984;3.538;2023-04-24T11:54:35;3.38;;;0.50;;
47715;SDS011;33476;50.984;3.538;2023-04-24T11:57:03;4.10;;;0.82;;
47715;SDS011;33476;50.984;3.538;2023-04-24T11:59:35;2.78;;;0.45;;
47715;SDS011;33476;50.984;3.538;2023-04-24T12:02:01;3.53;;;0.52;;
47715;SDS011;33476;50.984;3.538;2023-04-24T12:04:26;2.40;;;0.45;;
47715;SDS011;33476;50.984;3.538;2023-04-24T12:07:01;4.85;;;0.55;;
47715;SDS011;33476;50.984;3.538;2023-04-24T12:09:42;2.47;;;0.60;;
47715;SDS011;33476;50.984;3.538;2023-04-24T12:12:10;4.00;;;0.55;;
47715;SDS011;33476;50.984;3.538;2023-04-24T12:14:44;5.55;;;0.70;;
47715;SDS011;33476;50.984;3.538;2023-04-24T12:17:12;3.05;;;0.73;;
47715;SDS011;33476;50.984;3.538;2023-04-24T12:19:44;1.65;;;0.38;;
47715;SDS011;33476;50.984;3.538;2023-04-24T12:22:11;1.63;;;0.63;;
47715;SDS011;33476;50.984;3.538;2023-04-24T12:24:54;5.03;;;1.10;;
47715;SDS011;33476;50.984;3.538;2023-04-24T12:27:24;3.67;;;0.60;;
47715;SDS011;33476;50.984;3.538;2023-04-24T12:29:55;4.70;;;0.80;;
47715;SDS011;33476;50.984;3.538;2023-04-24T12:32:21;2.50;;;0.40;;
47715;SDS011;33476;50.984;3.538;2023-04-24T12:34:47;2.60;;;0.55;;
47715;SDS011;33476;50.984;3.538;2023-04-24T12:37:12;1.17;;;0.40;;
47715;SDS011;33476;50.984;3.538;2023-04-24T12:39:37;3.53;;;0.50;;
47715;SDS011;33476;50.984;3.538;2023-04-24T12:42:03;4.00;;;0.50;;
47715;SDS011;33476;50.984;3.538;2023-04-24T12:44:29;2.30;;;0.20;;
47715;SDS011;33476;50.984;3.538;2023-04-24T12:49:25;3.97;;;0.30;;
47715;SDS011;33476;50.984;3.538;2023-04-24T12:51:50;3.13;;;0.30;;
47715;SDS011;33476;50.984;3.538;2023-04-24T12:54:16;5.28;;;0.47;;
47715;SDS011;33476;50.984;3.538;2023-04-24T12:56:41;1.85;;;0.20;;
47715;SDS011;33476;50.984;3.538;2023-04-24T12:59:06;4.40;;;0.30;;
47715;SDS011;33476;50.984;3.538;2023-04-24T13:01:32;1.15;;;0.20;;
47715;SDS011;33476;50.984;3.538;2023-04-24T13:03:57;0.73;;;0.20;;
47715;SDS011;33476;50.984;3.538;2023-04-24T13:06:23;0.95;;;0.20;;
47715;SDS011;33476;50.984;3.538;2023-04-24T13:08:48;1.15;;;0.15;;
47715;SDS011;33476;50.984;3.538;2023-04-24T13:11:14;0.98;;;0.10;;
47715;SDS011;33476;50.984;3.538;2023-04-24T13:13:39;0.80;;;0.20;;
47715;SDS011;33476;50.984;3.538;2023-04-24T13:16:05;2.83;;;0.40;;
47715;SDS011;33476;50.984;3.538;2023-04-24T13:18:30;3.17;;;0.38;;
47715;SDS011;33476;50.984;3.538;2023-04-24T13:20:56;3.00;;;0.20;;
47715;SDS011;33476;50.984;3.538;2023-04-24T13:23:21;4.38;;;0.25;;
47715;SDS011;33476;50.984;3.538;2023-04-24T13:25:47;2.55;;;0.40;;
47715;SDS011;33476;50.984;3.538;2023-04-24T13:28:13;1.00;;;0.10;;
47715;SDS011;33476;50.984;3.538;2023-04-24T13:30:38;5.72;;;0.10;;
47715;SDS011;33476;50.984;3.538;2023-04-24T13:33:04;0.35;;;0.10;;
47715;SDS011;33476;50.984;3.538;2023-04-24T13:35:29;1.85;;;0.15;;
47715;SDS011;33476;50.984;3.538;2023-04-24T13:37:55;2.28;;;0.15;;
47715;SDS011;33476;50.984;3.538;2023-04-24T13:40:21;3.40;;;0.20;;
47715;SDS011;33476;50.984;3.538;2023-04-24T13:42:46;0.60;;;0.10;;
47715;SDS011;33476;50.984;3.538;2023-04-24T13:45:12;1.65;;;0.10;;
47715;SDS011;33476;50.984;3.538;2023-04-24T13:47:37;2.58;;;0.10;;
47715;SDS011;33476;50.984;3.538;2023-04-24T13:50:05;1.90;;;0.20;;
47715;SDS011;33476;50.984;3.538;2023-04-24T13:52:32;1.00;;;0.30;;
47715;SDS011;33476;50.984;3.538;2023-04-24T13:54:57;1.35;;;0.10;;
47715;SDS011;33476;50.984;3.538;2023-04-24T13:57:23;2.72;;;0.30;;
47715;SDS011;33476;50.984;3.538;2023-04-24T13:59:48;0.73;;;0.10;;
47715;SDS011;33476;50.984;3.538;2023-04-24T14:02:14;0.73;;;0.10;;
47715;SDS011;33476;50.984;3.538;2023-04-24T14:04:39;2.00;;;0.10;;
47715;SDS011;33476;50.984;3.538;2023-04-24T14:07:07;0.57;;;0.10;;
47715;SDS011;33476;50.984;3.538;2023-04-24T14:09:33;2.20;;;0.17;;
47715;SDS011;33476;50.984;3.538;2023-04-24T14:11:59;0.85;;;0.10;;
47715;SDS011;33476;50.984;3.538;2023-04-24T14:14:26;0.28;;;0.10;;
47715;SDS011;33476;50.984;3.538;2023-04-24T14:16:52;0.50;;;0.10;;
47715;SDS011;33476;50.984;3.538;2023-04-24T14:19:17;2.35;;;0.10;;
47715;SDS011;33476;50.984;3.538;2023-04-24T14:21:42;0.50;;;0.10;;
47715;SDS011;33476;50.984;3.538;2023-04-24T14:24:08;1.27;;;0.10;;
47715;SDS011;33476;50.984;3.538;2023-04-24T14:26:33;1.73;;;0.10;;
47715;SDS011;33476;50.984;3.538;2023-04-24T14:28:59;0.82;;;0.13;;
47715;SDS011;33476;50.984;3.538;2023-04-24T14:31:25;1.30;;;0.10;;
47715;SDS011;33476;50.984;3.538;2023-04-24T14:33:50;1.38;;;0.10;;
47715;SDS011;33476;50.984;3.538;2023-04-24T14:36:16;1.95;;;0.10;;
47715;SDS011;33476;50.984;3.538;2023-04-24T14:38:41;0.85;;;0.17;;
47715;SDS011;33476;50.984;3.538;2023-04-24T14:41:07;12.15;;;0.20;;
47715;SDS011;33476;50.984;3.538;2023-04-24T14:43:35;1.45;;;0.08;;
47715;SDS011;33476;50.984;3.538;2023-04-24T14:46:01;0.52;;;0.15;;
47715;SDS011;33476;50.984;3.538;2023-04-24T14:48:27;0.95;;;0.10;;
47715;SDS011;33476;50.984;3.538;2023-04-24T14:50:52;2.88;;;0.20;;
47715;SDS011;33476;50.984;3.538;2023-04-24T14:53:17;3.17;;;0.30;;
47715;SDS011;33476;50.984;3.538;2023-04-24T14:55:43;0.90;;;0.20;;
47715;SDS011;33476;50.984;3.538;2023-04-24T14:58:09;0.30;;;0.10;;
47715;SDS011;33476;50.984;3.538;2023-04-24T15:00:35;1.25;;;0.10;;
47715;SDS011;33476;50.984;3.538;2023-04-24T15:03:00;1.88;;;0.10;;